createdAt,value
2019-01-03T00:00:10.106Z,-1.60
2019-01-03T00:02:49.214Z,-1.50
2019-01-03T00:05:19.290Z,-1.50
2019-01-03T00:07:58.162Z,-1.60
2019-01-03T00:10:45.020Z,-1.60
2019-01-03T00:13:33.506Z,-1.60
2019-01-03T00:16:18.873Z,-1.50
2019-01-03T00:18:48.969Z,-1.50
2019-01-03T00:21:19.049Z,-1.50
2019-01-03T00:23:49.141Z,-1.50
2019-01-03T00:26:27.958Z,-1.50
2019-01-03T00:29:14.366Z,-1.50
2019-01-03T00:31:44.480Z,-1.60
2019-01-03T00:34:23.133Z,-1.60
2019-01-03T00:37:05.321Z,-1.60
2019-01-03T00:39:35.412Z,-1.70
2019-01-03T00:42:05.553Z,-1.70
2019-01-03T00:44:35.650Z,-1.90
2019-01-03T00:47:08.163Z,-2.00
2019-01-03T00:49:54.562Z,-2.00
2019-01-03T00:52:24.642Z,-2.00
2019-01-03T00:55:10.966Z,-2.00
2019-01-03T00:57:53.078Z,-2.00
2019-01-03T01:00:41.553Z,-2.00
2019-01-03T01:03:27.753Z,-2.00
2019-01-03T01:06:16.010Z,-1.90
2019-01-03T01:08:52.141Z,-1.90
2019-01-03T01:11:22.322Z,-1.90
2019-01-03T01:14:08.742Z,-1.80
2019-01-03T01:16:38.825Z,-1.80
2019-01-03T01:19:11.653Z,-1.70
2019-01-03T01:21:44.550Z,-1.70
2019-01-03T01:24:26.531Z,-1.70
2019-01-03T01:26:56.634Z,-1.70
2019-01-03T01:29:26.781Z,-1.70
2019-01-03T01:32:02.870Z,-1.60
2019-01-03T01:34:35.481Z,-1.70
2019-01-03T01:37:05.556Z,-1.60
2019-01-03T01:39:50.461Z,-1.60
2019-01-03T01:42:26.406Z,-1.60
2019-01-03T01:45:13.069Z,-1.60
2019-01-03T01:47:52.117Z,-1.60
2019-01-03T01:50:25.249Z,-1.70
2019-01-03T01:52:55.342Z,-1.70
2019-01-03T01:55:40.398Z,-1.60
2019-01-03T01:58:26.472Z,-1.70
2019-01-03T02:00:59.314Z,-1.70
2019-01-03T02:03:38.517Z,-1.80
2019-01-03T02:06:14.159Z,-1.80
2019-01-03T02:08:59.275Z,-1.80
2019-01-03T02:11:29.357Z,-1.90
2019-01-03T02:14:02.566Z,-1.90
2019-01-03T02:16:35.467Z,-2.00
2019-01-03T02:19:08.472Z,-1.90
2019-01-03T02:21:54.537Z,-1.90
2019-01-03T02:24:27.653Z,-1.90
2019-01-03T02:27:06.478Z,-2.00
2019-01-03T02:29:51.639Z,-1.90
2019-01-03T02:32:33.746Z,-1.90
2019-01-03T02:35:20.106Z,-2.00
2019-01-03T02:38:06.626Z,-2.10
2019-01-03T02:40:48.781Z,-2.10
2019-01-03T02:43:22.121Z,-2.10
2019-01-03T02:46:08.490Z,-2.20
2019-01-03T02:48:47.097Z,-2.20
2019-01-03T02:51:32.288Z,-2.10
2019-01-03T02:54:02.390Z,-2.10
2019-01-03T02:56:35.215Z,-2.00
2019-01-03T02:59:21.637Z,-2.00
2019-01-03T03:02:03.646Z,-2.00
2019-01-03T03:04:49.058Z,-2.00
2019-01-03T03:07:33.897Z,-2.00
2019-01-03T03:10:12.994Z,-2.00
2019-01-03T03:12:54.913Z,-2.00
2019-01-03T03:15:25.009Z,-2.00
2019-01-03T03:18:11.540Z,-2.00
2019-01-03T03:20:58.138Z,-2.00
2019-01-03T03:23:28.242Z,-2.00
2019-01-03T03:26:04.238Z,-2.00
2019-01-03T03:28:50.913Z,-2.10
2019-01-03T03:31:29.807Z,-2.10
2019-01-03T03:34:16.173Z,-2.00
2019-01-03T03:36:46.249Z,-2.10
2019-01-03T03:39:18.997Z,-2.00
2019-01-03T03:42:05.512Z,-2.10
2019-01-03T03:44:44.649Z,-2.10
2019-01-03T03:47:20.478Z,-2.10
2019-01-03T03:50:06.754Z,-2.00
2019-01-03T03:52:39.998Z,-2.00
2019-01-03T03:55:25.426Z,-1.90
2019-01-03T03:57:55.521Z,-1.80
2019-01-03T04:00:43.738Z,-1.80
2019-01-03T04:03:19.787Z,-1.80
2019-01-03T04:05:52.614Z,-1.80
2019-01-03T04:08:39.363Z,-1.80
2019-01-03T04:11:12.193Z,-1.80
2019-01-03T04:13:45.373Z,-1.80
2019-01-03T04:16:31.662Z,-1.80
2019-01-03T04:19:16.970Z,-1.80
2019-01-03T04:21:52.810Z,-1.90
2019-01-03T04:24:22.893Z,-1.90
2019-01-03T04:26:53.001Z,-1.80
2019-01-03T04:29:39.326Z,-1.80
2019-01-03T04:32:12.590Z,-1.80
2019-01-03T04:34:42.673Z,-1.90
2019-01-03T04:37:21.569Z,-1.90
2019-01-03T04:40:08.294Z,-1.90
2019-01-03T04:42:38.390Z,-1.90
2019-01-03T04:45:14.579Z,-1.90
2019-01-03T04:47:44.665Z,-1.90
2019-01-03T04:50:33.026Z,-2.00
2019-01-03T04:53:17.806Z,-2.10
2019-01-03T04:55:47.910Z,-2.10
2019-01-03T04:58:23.558Z,-2.20
2019-01-03T05:01:02.216Z,-2.20
2019-01-03T05:03:38.709Z,-2.20
2019-01-03T05:06:17.542Z,-2.20
2019-01-03T05:08:53.442Z,-2.30
2019-01-03T05:11:23.843Z,-2.30
2019-01-03T05:14:02.701Z,-2.30
2019-01-03T05:16:38.287Z,-2.30
2019-01-03T05:19:17.403Z,-2.30
2019-01-03T05:21:50.226Z,-2.40
2019-01-03T05:24:26.354Z,-2.40
2019-01-03T05:26:58.858Z,-2.30
2019-01-03T05:29:28.959Z,-2.30
2019-01-03T05:32:11.173Z,-2.30
2019-01-03T05:34:47.405Z,-2.30
2019-01-03T05:37:23.656Z,-2.30
2019-01-03T05:39:59.879Z,-2.30
2019-01-03T05:42:30.015Z,-2.30
2019-01-03T05:45:05.943Z,-2.30
2019-01-03T05:47:36.159Z,-2.30
2019-01-03T05:50:21.333Z,-2.30
2019-01-03T05:53:06.654Z,-2.30
2019-01-03T05:55:39.465Z,-2.30
2019-01-03T05:58:24.599Z,-2.40
2019-01-03T06:01:10.937Z,-2.50
2019-01-03T06:03:41.034Z,-2.60
2019-01-03T06:06:26.462Z,-2.60
2019-01-03T06:09:12.959Z,-2.70
2019-01-03T06:12:01.178Z,-2.70
2019-01-03T06:14:46.417Z,-2.80
2019-01-03T06:17:22.379Z,-2.70
2019-01-03T06:20:08.565Z,-2.70
2019-01-03T06:22:38.645Z,-2.60
2019-01-03T06:25:08.977Z,-2.50
2019-01-03T06:27:48.110Z,-2.50
2019-01-03T06:30:21.267Z,-2.50
2019-01-03T06:33:03.034Z,-2.50
2019-01-03T06:35:42.334Z,-2.50
2019-01-03T06:38:21.681Z,-2.50
2019-01-03T06:40:51.765Z,-2.40
2019-01-03T06:43:24.838Z,-2.40
2019-01-03T06:46:06.969Z,-2.50
2019-01-03T06:48:53.542Z,-2.50
2019-01-03T06:51:23.632Z,-2.60
2019-01-03T06:53:53.709Z,-2.60
2019-01-03T06:56:40.037Z,-2.70
2019-01-03T06:59:10.117Z,-2.70
2019-01-03T07:01:56.614Z,-2.80
2019-01-03T07:04:41.877Z,-2.80
2019-01-03T07:07:23.878Z,-2.70
2019-01-03T07:10:10.401Z,-2.70
2019-01-03T07:12:49.269Z,-2.70
2019-01-03T07:15:28.221Z,-2.80
2019-01-03T07:18:14.614Z,-2.80
2019-01-03T07:20:53.513Z,-2.90
2019-01-03T07:23:39.797Z,-2.90
2019-01-03T07:26:18.657Z,-2.80
2019-01-03T07:29:03.545Z,-2.70
2019-01-03T07:31:48.514Z,-2.60
2019-01-03T07:34:21.393Z,-2.50
2019-01-03T07:37:07.988Z,-2.40
2019-01-03T07:39:41.241Z,-2.30
2019-01-03T07:42:26.267Z,-2.20
2019-01-03T07:45:05.453Z,-2.10
2019-01-03T07:47:41.518Z,-2.10
2019-01-03T07:50:20.397Z,-2.00
2019-01-03T07:52:56.173Z,-2.00
2019-01-03T07:55:26.278Z,-2.00
2019-01-03T07:57:59.155Z,-2.00
2019-01-03T08:00:35.510Z,-2.00
2019-01-03T08:03:08.797Z,-1.90
2019-01-03T08:05:38.893Z,-1.90
2019-01-03T08:08:21.340Z,-1.90
2019-01-03T08:11:07.874Z,-1.80
2019-01-03T08:13:44.636Z,-1.80
2019-01-03T08:16:17.546Z,-1.80
2019-01-03T08:19:06.022Z,-1.70
2019-01-03T08:21:41.991Z,-1.60
2019-01-03T08:24:12.082Z,-1.60
2019-01-03T08:26:42.161Z,-1.50
2019-01-03T08:29:28.777Z,-1.50
2019-01-03T08:32:01.422Z,-1.40
2019-01-03T08:34:31.502Z,-1.40
2019-01-03T08:37:10.584Z,-1.40
2019-01-03T08:39:46.145Z,-1.40
2019-01-03T08:42:22.014Z,-1.40
2019-01-03T08:44:57.954Z,-1.40
2019-01-03T08:47:36.869Z,-1.30
2019-01-03T08:50:23.766Z,-1.40
2019-01-03T08:53:09.074Z,-1.30
2019-01-03T08:55:41.990Z,-1.30
2019-01-03T08:58:23.934Z,-1.20
2019-01-03T09:00:54.034Z,-1.20
2019-01-03T09:03:29.951Z,-1.00
2019-01-03T09:06:09.201Z,-0.90
2019-01-03T09:08:39.302Z,-0.80
2019-01-03T09:11:25.726Z,-0.60
2019-01-03T09:13:55.818Z,-0.50
2019-01-03T09:16:25.902Z,-0.40
2019-01-03T09:18:55.994Z,-0.40
2019-01-03T09:21:32.417Z,-0.30
2019-01-03T09:24:18.988Z,-0.60
2019-01-03T09:27:05.646Z,-0.70
2019-01-03T09:29:38.754Z,-0.70
2019-01-03T09:32:08.921Z,-0.90
2019-01-03T09:34:55.002Z,-0.90
2019-01-03T09:37:36.618Z,-0.80
2019-01-03T09:40:10.629Z,-0.90
2019-01-03T09:42:46.681Z,-0.90
2019-01-03T09:45:15.137Z,-1.00
2019-01-03T09:47:43.582Z,-0.80
2019-01-03T09:50:12.437Z,-0.70
2019-01-03T09:52:40.877Z,-0.60
2019-01-03T09:55:09.454Z,-0.60
2019-01-03T09:57:38.222Z,-0.40
2019-01-03T10:00:09.165Z,-0.20
2019-01-03T10:02:37.630Z,-0.30
2019-01-03T10:05:06.705Z,-0.50
2019-01-03T10:07:35.154Z,-0.30
2019-01-03T10:10:05.441Z,-0.20
2019-01-03T10:12:33.897Z,-0.30
2019-01-03T10:15:02.353Z,-0.30
2019-01-03T10:17:30.891Z,-0.40
2019-01-03T10:19:59.413Z,-0.30
2019-01-03T10:22:27.852Z,-0.20
2019-01-03T10:24:56.287Z,-0.20
2019-01-03T10:27:24.737Z,-0.10
2019-01-03T10:29:53.178Z,0.00
2019-01-03T10:32:21.621Z,0.20
2019-01-03T10:34:50.056Z,0.30
2019-01-03T10:37:18.508Z,-0.10
2019-01-03T10:39:46.957Z,-0.10
2019-01-03T10:42:15.410Z,0.00
2019-01-03T10:44:43.862Z,0.10
2019-01-03T10:47:12.289Z,0.00
2019-01-03T10:49:40.741Z,-0.20
2019-01-03T10:52:09.249Z,-0.30
2019-01-03T10:54:37.705Z,-0.30
2019-01-03T10:57:06.229Z,-0.40
2019-01-03T10:59:34.678Z,-0.30
2019-01-03T11:02:03.134Z,-0.40
2019-01-03T11:04:31.646Z,-0.30
2019-01-03T11:07:00.096Z,-0.20
2019-01-03T11:09:28.546Z,-0.50
2019-01-03T11:11:56.981Z,-0.50
2019-01-03T11:14:25.462Z,-0.50
2019-01-03T11:16:53.945Z,-0.30
2019-01-03T11:19:22.398Z,-0.20
2019-01-03T11:21:50.849Z,-0.50
2019-01-03T11:24:19.286Z,-0.50
2019-01-03T11:26:47.734Z,-0.30
2019-01-03T11:29:16.166Z,-0.40
2019-01-03T11:31:44.613Z,-0.50
2019-01-03T11:34:13.049Z,-0.50
2019-01-03T11:36:41.497Z,-0.50
2019-01-03T11:39:09.933Z,-0.40
2019-01-03T11:41:38.389Z,-0.30
2019-01-03T11:44:06.825Z,-0.40
2019-01-03T11:46:35.333Z,-0.30
2019-01-03T11:49:03.785Z,-0.20
2019-01-03T11:51:32.217Z,-0.40
2019-01-03T11:54:00.669Z,-0.20
2019-01-03T11:56:29.110Z,-0.20
2019-01-03T11:58:57.562Z,-0.20
2019-01-03T12:01:26.013Z,0.00
2019-01-03T12:03:54.445Z,0.00
2019-01-03T12:06:22.889Z,0.00
2019-01-03T12:08:51.326Z,0.00
2019-01-03T12:11:19.781Z,0.10
2019-01-03T12:13:48.205Z,0.00
2019-01-03T12:16:16.661Z,0.00
2019-01-03T12:18:45.086Z,0.10
2019-01-03T12:21:13.533Z,0.10
2019-01-03T12:23:41.971Z,0.10
2019-01-03T12:26:10.413Z,0.10
2019-01-03T12:28:38.849Z,0.10
2019-01-03T12:31:07.317Z,0.20
2019-01-03T12:33:35.749Z,0.10
2019-01-03T12:36:04.187Z,0.20
2019-01-03T12:38:32.639Z,0.40
2019-01-03T12:41:01.138Z,0.50
2019-01-03T12:43:29.584Z,0.30
2019-01-03T12:45:58.029Z,0.40
2019-01-03T12:48:26.477Z,0.60
2019-01-03T12:50:54.917Z,0.80
2019-01-03T12:53:23.368Z,0.50
2019-01-03T12:55:51.810Z,0.20
2019-01-03T12:58:20.262Z,0.20
2019-01-03T13:00:48.773Z,0.20
2019-01-03T13:03:17.226Z,0.30
2019-01-03T13:05:45.679Z,0.40
2019-01-03T13:08:14.181Z,0.10
2019-01-03T13:10:42.634Z,0.10
2019-01-03T13:13:11.084Z,0.00
2019-01-03T13:15:39.521Z,-0.10
2019-01-03T13:18:07.977Z,-0.10
2019-01-03T13:20:36.421Z,-0.10
2019-01-03T13:23:04.878Z,-0.10
2019-01-03T13:25:33.406Z,0.10
2019-01-03T13:28:01.844Z,0.10
2019-01-03T13:30:30.277Z,0.20
2019-01-03T13:32:58.725Z,0.10
2019-01-03T13:35:27.169Z,0.00
2019-01-03T13:37:55.621Z,0.10
2019-01-03T13:40:24.057Z,0.10
2019-01-03T13:42:52.491Z,0.10
2019-01-03T13:45:20.941Z,0.20
2019-01-03T13:47:49.373Z,0.30
2019-01-03T13:50:17.822Z,0.20
2019-01-03T13:52:46.295Z,0.10
2019-01-03T13:55:14.749Z,0.10
2019-01-03T13:57:43.191Z,0.00
2019-01-03T14:00:11.710Z,0.00
2019-01-03T14:02:40.157Z,-0.10
2019-01-03T14:05:08.749Z,-0.40
2019-01-03T14:07:37.194Z,-0.40
2019-01-03T14:10:07.321Z,-0.40
2019-01-03T14:12:35.841Z,-0.40
2019-01-03T14:15:05.848Z,-0.40
2019-01-03T14:17:34.291Z,-0.40
2019-01-03T14:20:02.987Z,-0.40
2019-01-03T14:22:31.494Z,-0.40
2019-01-03T14:25:00.210Z,-0.50
2019-01-03T14:27:28.661Z,-0.50
2019-01-03T14:29:57.161Z,-0.50
2019-01-03T14:32:25.614Z,-0.50
2019-01-03T14:34:54.045Z,-0.60
2019-01-03T14:37:22.511Z,-0.70
2019-01-03T14:39:50.956Z,-0.70
2019-01-03T14:42:19.405Z,-0.80
2019-01-03T14:44:47.842Z,-0.80
2019-01-03T14:47:16.282Z,-0.90
2019-01-03T14:49:44.764Z,-0.90
2019-01-03T14:52:13.242Z,-1.00
2019-01-03T14:54:41.734Z,-1.00
2019-01-03T14:57:10.170Z,-1.10
2019-01-03T14:59:38.621Z,-1.10
2019-01-03T15:02:07.057Z,-1.20
2019-01-03T15:04:35.509Z,-1.20
2019-01-03T15:07:03.954Z,-1.20
2019-01-03T15:09:32.406Z,-1.40
2019-01-03T15:12:00.862Z,-1.40
2019-01-03T15:14:29.297Z,-1.50
2019-01-03T15:16:57.749Z,-1.40
2019-01-03T15:19:26.189Z,-1.50
2019-01-03T15:21:54.633Z,-1.50
2019-01-03T15:24:23.079Z,-1.50
2019-01-03T15:26:51.609Z,-1.50
2019-01-03T15:29:20.046Z,-1.50
2019-01-03T15:31:48.503Z,-1.50
2019-01-03T15:34:16.945Z,-1.50
2019-01-03T15:36:45.413Z,-1.50
2019-01-03T15:39:13.853Z,-1.50
2019-01-03T15:41:42.311Z,-1.50
2019-01-03T15:44:10.750Z,-1.60
2019-01-03T15:46:39.202Z,-1.50
2019-01-03T15:49:07.637Z,-1.60
2019-01-03T15:51:36.093Z,-1.60
2019-01-03T15:54:04.562Z,-1.60
2019-01-03T15:56:33.159Z,-1.60
2019-01-03T15:59:01.661Z,-1.60
2019-01-03T16:01:30.098Z,-1.60
2019-01-03T16:03:58.557Z,-1.60
2019-01-03T16:06:27.009Z,-1.60
2019-01-03T16:08:55.442Z,-1.60
2019-01-03T16:11:23.902Z,-1.60
2019-01-03T16:13:52.345Z,-1.60
2019-01-03T16:16:20.793Z,-1.60
2019-01-03T16:18:49.246Z,-1.70
2019-01-03T16:21:17.685Z,-1.60
2019-01-03T16:23:46.145Z,-1.70
2019-01-03T16:26:14.593Z,-1.80
2019-01-03T16:28:43.027Z,-1.80
2019-01-03T16:31:11.478Z,-1.80
2019-01-03T16:33:39.925Z,-1.80
2019-01-03T16:36:08.381Z,-1.70
2019-01-03T16:38:36.821Z,-1.80
2019-01-03T16:41:05.380Z,-1.80
2019-01-03T16:43:34.009Z,-1.80
2019-01-03T16:46:02.824Z,-1.80
2019-01-03T16:48:31.644Z,-1.80
2019-01-03T16:51:00.156Z,-1.90
2019-01-03T16:53:28.626Z,-1.90
2019-01-03T16:55:57.130Z,-1.90
2019-01-03T16:58:29.182Z,-1.90
2019-01-03T17:00:57.714Z,-1.90
2019-01-03T17:03:26.149Z,-1.90
2019-01-03T17:05:54.934Z,-1.90
2019-01-03T17:08:23.377Z,-1.80
2019-01-03T17:10:51.814Z,-1.90
2019-01-03T17:13:20.269Z,-1.90
2019-01-03T17:15:48.714Z,-1.90
2019-01-03T17:18:17.173Z,-1.90
2019-01-03T17:20:45.609Z,-1.90
2019-01-03T17:23:14.062Z,-2.00
2019-01-03T17:25:42.590Z,-2.00
2019-01-03T17:28:11.045Z,-2.00
2019-01-03T17:30:39.527Z,-2.10
2019-01-03T17:33:08.030Z,-2.10
2019-01-03T17:35:36.485Z,-2.00
2019-01-03T17:38:04.971Z,-2.00
2019-01-03T17:40:33.539Z,-1.90
2019-01-03T17:43:01.997Z,-1.90
2019-01-03T17:45:30.447Z,-2.00
2019-01-03T17:47:58.973Z,-2.00
2019-01-03T17:50:27.412Z,-2.00
2019-01-03T17:52:55.865Z,-2.00
2019-01-03T17:55:24.397Z,-2.00
2019-01-03T17:57:52.860Z,-2.00
2019-01-03T18:00:21.652Z,-2.00
2019-01-03T18:02:50.102Z,-2.00
2019-01-03T18:05:18.571Z,-2.00
2019-01-03T18:07:47.023Z,-2.00
2019-01-03T18:10:15.533Z,-1.90
2019-01-03T18:12:44.066Z,-1.90
2019-01-03T18:15:12.721Z,-1.90
2019-01-03T18:17:41.153Z,-1.90
2019-01-03T18:20:12.653Z,-1.90
2019-01-03T18:22:41.097Z,-1.90
2019-01-03T18:25:09.738Z,-2.00
2019-01-03T18:27:38.287Z,-2.00
2019-01-03T18:30:11.849Z,-2.00
2019-01-03T18:32:40.314Z,-1.90
2019-01-03T18:35:08.761Z,-2.00
2019-01-03T18:37:37.273Z,-2.00
2019-01-03T18:40:08.830Z,-2.00
2019-01-03T18:42:37.334Z,-2.10
2019-01-03T18:45:08.874Z,-2.00
2019-01-03T18:47:37.325Z,-2.10
2019-01-03T18:50:07.038Z,-2.20
2019-01-03T18:52:35.554Z,-2.20
2019-01-03T18:55:05.370Z,-2.30
2019-01-03T18:57:34.016Z,-2.20
2019-01-03T19:00:04.489Z,-2.10
2019-01-03T19:02:33.094Z,-2.00
2019-01-03T19:05:01.563Z,-2.10
2019-01-03T19:07:30.078Z,-2.00
2019-01-03T19:09:58.801Z,-2.00
2019-01-03T19:12:27.250Z,-2.10
2019-01-03T19:14:55.698Z,-2.00
2019-01-03T19:17:24.158Z,-2.10
2019-01-03T19:19:52.596Z,-2.10
2019-01-03T19:22:21.053Z,-2.10
2019-01-03T19:24:49.496Z,-2.20
2019-01-03T19:27:17.954Z,-2.30
2019-01-03T19:29:46.394Z,-2.30
2019-01-03T19:32:14.860Z,-2.40
2019-01-03T19:34:43.298Z,-2.40
2019-01-03T19:37:11.748Z,-2.40
2019-01-03T19:39:40.209Z,-2.50
2019-01-03T19:42:08.658Z,-2.50
2019-01-03T19:44:37.134Z,-2.50
2019-01-03T19:47:05.570Z,-2.60
2019-01-03T19:49:34.022Z,-2.50
2019-01-03T19:52:02.514Z,-2.40
2019-01-03T19:54:30.966Z,-2.30
2019-01-03T19:56:59.418Z,-2.30
2019-01-03T19:59:27.915Z,-2.30
2019-01-03T20:01:56.355Z,-2.20
2019-01-03T20:04:24.885Z,-2.20
2019-01-03T20:06:53.398Z,-2.20
2019-01-03T20:09:21.859Z,-2.30
2019-01-03T20:11:50.313Z,-2.30
2019-01-03T20:14:18.806Z,-2.30
2019-01-03T20:16:47.245Z,-2.30
2019-01-03T20:19:15.691Z,-2.30
2019-01-03T20:21:44.289Z,-2.30
2019-01-03T20:24:12.754Z,-2.40
2019-01-03T20:26:41.219Z,-2.40
2019-01-03T20:29:09.661Z,-2.50
2019-01-03T20:31:38.181Z,-2.50
2019-01-03T20:34:06.706Z,-2.40
2019-01-03T20:36:35.290Z,-2.30
2019-01-03T20:39:04.580Z,-2.30
2019-01-03T20:41:33.088Z,-2.40
2019-01-03T20:44:02.730Z,-2.30
2019-01-03T20:46:32.369Z,-2.30
2019-01-03T20:49:00.901Z,-2.20
2019-01-03T20:51:29.553Z,-2.30
2019-01-03T20:53:59.021Z,-2.30
2019-01-03T20:56:27.678Z,-2.20
2019-01-03T20:58:56.134Z,-2.20
2019-01-03T21:01:29.186Z,-2.20
2019-01-03T21:03:57.694Z,-2.10
2019-01-03T21:06:27.389Z,-2.10
2019-01-03T21:08:57.497Z,-2.10
2019-01-03T21:11:26.025Z,-2.10
2019-01-03T21:13:54.773Z,-2.20
2019-01-03T21:16:23.215Z,-2.10
2019-01-03T21:18:51.653Z,-2.10
2019-01-03T21:21:20.185Z,-2.10
2019-01-03T21:23:48.646Z,-2.10
2019-01-03T21:26:17.229Z,-2.10
2019-01-03T21:28:45.755Z,-2.10
2019-01-03T21:31:14.350Z,-2.10
2019-01-03T21:33:42.785Z,-2.20
2019-01-03T21:36:11.390Z,-2.20
2019-01-03T21:38:39.825Z,-2.20
2019-01-03T21:41:08.426Z,-2.30
2019-01-03T21:43:36.953Z,-2.30
2019-01-03T21:46:05.477Z,-2.30
2019-01-03T21:48:33.933Z,-2.30
2019-01-03T21:51:02.458Z,-2.40
2019-01-03T21:53:31.058Z,-2.40
2019-01-03T21:55:59.487Z,-2.40
2019-01-03T21:58:27.942Z,-2.40
2019-01-03T22:00:56.392Z,-2.40
2019-01-03T22:03:24.857Z,-2.40
2019-01-03T22:05:53.313Z,-2.50
2019-01-03T22:08:21.753Z,-2.40
2019-01-03T22:10:50.218Z,-2.50
2019-01-03T22:13:18.664Z,-2.50
2019-01-03T22:15:47.122Z,-2.40
2019-01-03T22:18:15.565Z,-2.30
2019-01-03T22:20:44.022Z,-2.30
2019-01-03T22:23:12.457Z,-2.30
2019-01-03T22:25:40.922Z,-2.30
2019-01-03T22:28:09.381Z,-2.40
2019-01-03T22:30:37.835Z,-2.40
2019-01-03T22:33:06.273Z,-2.40
2019-01-03T22:35:34.817Z,-2.40
2019-01-03T22:38:03.273Z,-2.50
2019-01-03T22:40:31.734Z,-2.70
2019-01-03T22:43:00.168Z,-2.70
2019-01-03T22:45:28.634Z,-2.80
2019-01-03T22:47:57.408Z,-2.90
2019-01-03T22:50:25.885Z,-3.00
2019-01-03T22:52:54.349Z,-3.00
2019-01-03T22:55:22.782Z,-3.20
2019-01-03T22:57:51.313Z,-3.20
2019-01-03T23:00:28.765Z,-3.20
2019-01-03T23:02:57.268Z,-3.20
2019-01-03T23:05:25.797Z,-3.30
2019-01-03T23:07:54.263Z,-3.30
2019-01-03T23:10:22.778Z,-3.30
2019-01-03T23:12:51.241Z,-3.40
2019-01-03T23:15:19.817Z,-3.50
2019-01-03T23:17:48.274Z,-3.70
2019-01-03T23:20:16.725Z,-3.70
2019-01-03T23:22:45.187Z,-3.70
2019-01-03T23:25:13.730Z,-3.70
2019-01-03T23:27:42.317Z,-3.60
2019-01-03T23:30:10.925Z,-3.50
2019-01-03T23:32:39.381Z,-3.40
2019-01-03T23:35:07.894Z,-3.40
2019-01-03T23:37:36.364Z,-3.40
2019-01-03T23:40:05.745Z,-3.40
2019-01-03T23:42:34.206Z,-3.50
2019-01-03T23:45:14.290Z,-3.50
2019-01-03T23:47:42.816Z,-3.40
2019-01-03T23:50:16.938Z,-3.30
2019-01-03T23:52:45.402Z,-3.20
2019-01-03T23:55:13.846Z,-3.00
2019-01-03T23:57:42.445Z,-3.00
